sensor_id;sensor_type;location;lat;lon;timestamp;pressure;altitude;pressure_sealevel;temperature;humidity
10261;BME280;5175;42.606;23.388;2023-03-26T00:02:24;93291.44;;;10.04;100.00
10261;BME280;5175;42.606;23.388;2023-03-26T00:04:53;93295.34;;;9.93;100.00
10261;BME280;5175;42.606;23.388;2023-03-26T00:07:20;93297.13;;;9.97;100.00
10261;BME280;5175;42.606;23.388;2023-03-26T00:09:47;93291.94;;;9.87;100.00
10261;BME280;5175;42.606;23.388;2023-03-26T00:12:13;93302.66;;;9.82;100.00
10261;BME280;5175;42.606;23.388;2023-03-26T00:14:40;93298.13;;;9.83;100.00
10261;BME280;5175;42.606;23.388;2023-03-26T00:17:07;93309.66;;;9.78;100.00
10261;BME280;5175;42.606;23.388;2023-03-26T00:19:36;93288.09;;;9.75;100.00
10261;BME280;5175;42.606;23.388;2023-03-26T00:22:03;93292.56;;;9.79;100.00
10261;BME280;5175;42.606;23.388;2023-03-26T00:24:30;93268.84;;;9.59;100.00
10261;BME280;5175;42.606;23.388;2023-03-26T00:26:56;93271.44;;;9.64;100.00
10261;BME280;5175;42.606;23.388;2023-03-26T00:29:24;93248.03;;;9.61;100.00
10261;BME280;5175;42.606;23.388;2023-03-26T00:31:52;93240.66;;;9.77;100.00
10261;BME280;5175;42.606;23.388;2023-03-26T00:34:19;93244.00;;;9.64;100.00
10261;BME280;5175;42.606;23.388;2023-03-26T00:36:48;93222.88;;;9.72;100.00
10261;BME280;5175;42.606;23.388;2023-03-26T00:39:18;93231.88;;;9.76;100.00
10261;BME280;5175;42.606;23.388;2023-03-26T00:41:46;93210.13;;;9.69;100.00
10261;BME280;5175;42.606;23.388;2023-03-26T00:44:12;93219.56;;;9.80;100.00
10261;BME280;5175;42.606;23.388;2023-03-26T00:46:39;93215.09;;;9.76;100.00
10261;BME280;5175;42.606;23.388;2023-03-26T00:49:06;93223.81;;;9.63;100.00
10261;BME280;5175;42.606;23.388;2023-03-26T00:51:35;93210.56;;;9.58;100.00
10261;BME280;5175;42.606;23.388;2023-03-26T00:54:04;93221.56;;;9.70;100.00
10261;BME280;5175;42.606;23.388;2023-03-26T00:56:32;93226.91;;;9.70;100.00
10261;BME280;5175;42.606;23.388;2023-03-26T00:58:59;93225.75;;;9.57;100.00
10261;BME280;5175;42.606;23.388;2023-03-26T01:01:27;93218.59;;;9.53;100.00
10261;BME280;5175;42.606;23.388;2023-03-26T01:03:55;93222.53;;;9.36;100.00
10261;BME280;5175;42.606;23.388;2023-03-26T01:06:25;93225.81;;;9.28;100.00
10261;BME280;5175;42.606;23.388;2023-03-26T01:08:58;93217.13;;;9.18;100.00
10261;BME280;5175;42.606;23.388;2023-03-26T01:11:31;93213.69;;;9.17;100.00
10261;BME280;5175;42.606;23.388;2023-03-26T01:14:03;93216.13;;;9.14;100.00
10261;BME280;5175;42.606;23.388;2023-03-26T01:16:35;93225.22;;;9.08;100.00
10261;BME280;5175;42.606;23.388;2023-03-26T01:19:03;93216.56;;;9.21;100.00
10261;BME280;5175;42.606;23.388;2023-03-26T01:21:34;93230.69;;;9.21;100.00
10261;BME280;5175;42.606;23.388;2023-03-26T01:24:05;93227.91;;;9.31;100.00
10261;BME280;5175;42.606;23.388;2023-03-26T01:26:53;93232.66;;;9.34;100.00
10261;BME280;5175;42.606;23.388;2023-03-26T01:29:31;93233.69;;;9.38;100.00
10261;BME280;5175;42.606;23.388;2023-03-26T01:32:08;93237.00;;;9.49;100.00
10261;BME280;5175;42.606;23.388;2023-03-26T01:34:46;93243.63;;;9.52;100.00
10261;BME280;5175;42.606;23.388;2023-03-26T01:37:19;93245.94;;;9.58;100.00
10261;BME280;5175;42.606;23.388;2023-03-26T01:39:53;93255.34;;;9.51;100.00
10261;BME280;5175;42.606;23.388;2023-03-26T01:42:28;93256.38;;;9.55;100.00
10261;BME280;5175;42.606;23.388;2023-03-26T01:45:05;93254.63;;;9.45;100.00
10261;BME280;5175;42.606;23.388;2023-03-26T01:47:34;93256.72;;;9.48;100.00
10261;BME280;5175;42.606;23.388;2023-03-26T01:50:03;93245.63;;;9.41;100.00
10261;BME280;5175;42.606;23.388;2023-03-26T01:52:30;93255.16;;;9.47;100.00
10261;BME280;5175;42.606;23.388;2023-03-26T01:54:58;93266.34;;;9.44;100.00
10261;BME280;5175;42.606;23.388;2023-03-26T01:57:33;93262.97;;;9.38;100.00
10261;BME280;5175;42.606;23.388;2023-03-26T02:00:22;93265.56;;;9.43;100.00
10261;BME280;5175;42.606;23.388;2023-03-26T02:03:00;93262.50;;;9.55;100.00
10261;BME280;5175;42.606;23.388;2023-03-26T02:05:33;93266.81;;;9.51;100.00
10261;BME280;5175;42.606;23.388;2023-03-26T02:08:07;93262.53;;;9.50;100.00
10261;BME280;5175;42.606;23.388;2023-03-26T02:10:40;93272.69;;;9.48;100.00
10261;BME280;5175;42.606;23.388;2023-03-26T02:13:08;93274.63;;;9.42;100.00
10261;BME280;5175;42.606;23.388;2023-03-26T02:15:35;93282.41;;;9.39;100.00
10261;BME280;5175;42.606;23.388;2023-03-26T02:18:02;93271.69;;;9.44;100.00
10261;BME280;5175;42.606;23.388;2023-03-26T02:20:29;93269.75;;;9.50;100.00
10261;BME280;5175;42.606;23.388;2023-03-26T02:22:56;93274.47;;;9.58;100.00
10261;BME280;5175;42.606;23.388;2023-03-26T02:25:24;93263.34;;;9.74;100.00
10261;BME280;5175;42.606;23.388;2023-03-26T02:27:52;93270.25;;;9.75;100.00
10261;BME280;5175;42.606;23.388;2023-03-26T02:30:21;93261.97;;;9.77;100.00
10261;BME280;5175;42.606;23.388;2023-03-26T02:32:50;93261.41;;;9.80;100.00
10261;BME280;5175;42.606;23.388;2023-03-26T02:35:18;93260.84;;;9.83;100.00
10261;BME280;5175;42.606;23.388;2023-03-26T02:37:45;93200.44;;;9.36;100.00
10261;BME280;5175;42.606;23.388;2023-03-26T02:40:16;93263.16;;;9.66;100.00
10261;BME280;5175;42.606;23.388;2023-03-26T02:42:42;93268.50;;;9.66;100.00
10261;BME280;5175;42.606;23.388;2023-03-26T02:45:11;93257.06;;;9.41;100.00
10261;BME280;5175;42.606;23.388;2023-03-26T02:47:37;93265.56;;;9.43;100.00
10261;BME280;5175;42.606;23.388;2023-03-26T02:50:05;93275.97;;;9.40;100.00
10261;BME280;5175;42.606;23.388;2023-03-26T02:52:33;93272.59;;;9.34;100.00
10261;BME280;5175;42.606;23.388;2023-03-26T02:55:01;93276.94;;;9.49;100.00
10261;BME280;5175;42.606;23.388;2023-03-26T02:57:28;93274.56;;;9.48;100.00
10261;BME280;5175;42.606;23.388;2023-03-26T02:59:55;93274.66;;;9.37;100.00
10261;BME280;5175;42.606;23.388;2023-03-26T03:02:23;93280.47;;;9.44;100.00
10261;BME280;5175;42.606;23.388;2023-03-26T03:04:53;93284.00;;;9.35;100.00
10261;BME280;5175;42.606;23.388;2023-03-26T03:07:26;93288.50;;;9.39;100.00
10261;BME280;5175;42.606;23.388;2023-03-26T03:09:53;93280.06;;;9.32;100.00
10261;BME280;5175;42.606;23.388;2023-03-26T03:12:20;93284.06;;;9.30;100.00
10261;BME280;5175;42.606;23.388;2023-03-26T03:14:46;93288.53;;;9.11;100.00
10261;BME280;5175;42.606;23.388;2023-03-26T03:17:13;93290.16;;;9.07;100.00
10261;BME280;5175;42.606;23.388;2023-03-26T03:19:41;93292.56;;;9.08;100.00
10261;BME280;5175;42.606;23.388;2023-03-26T03:22:08;93293.09;;;9.05;100.00
10261;BME280;5175;42.606;23.388;2023-03-26T03:24:34;93293.91;;;9.06;100.00
10261;BME280;5175;42.606;23.388;2023-03-26T03:27:01;93295.44;;;8.83;100.00
10261;BME280;5175;42.606;23.388;2023-03-26T03:29:28;93298.97;;;8.73;100.00
10261;BME280;5175;42.606;23.388;2023-03-26T03:31:55;93304.88;;;8.70;100.00
10261;BME280;5175;42.606;23.388;2023-03-26T03:34:24;93304.16;;;8.60;100.00
10261;BME280;5175;42.606;23.388;2023-03-26T03:36:52;93321.59;;;8.71;100.00
10261;BME280;5175;42.606;23.388;2023-03-26T03:39:19;93305.78;;;8.51;100.00
10261;BME280;5175;42.606;23.388;2023-03-26T03:41:46;93312.03;;;8.31;100.00
10261;BME280;5175;42.606;23.388;2023-03-26T03:44:13;93314.09;;;8.44;100.00
10261;BME280;5175;42.606;23.388;2023-03-26T03:46:40;93308.22;;;8.47;100.00
10261;BME280;5175;42.606;23.388;2023-03-26T03:49:06;93315.41;;;8.47;100.00
10261;BME280;5175;42.606;23.388;2023-03-26T03:51:33;93315.66;;;8.45;100.00
10261;BME280;5175;42.606;23.388;2023-03-26T03:54:01;93312.53;;;8.38;100.00
10261;BME280;5175;42.606;23.388;2023-03-26T03:56:29;93321.56;;;8.42;100.00
10261;BME280;5175;42.606;23.388;2023-03-26T03:58:55;93334.31;;;8.40;100.00
10261;BME280;5175;42.606;23.388;2023-03-26T04:01:24;93313.09;;;8.25;100.00
10261;BME280;5175;42.606;23.388;2023-03-26T04:03:50;93321.38;;;8.29;100.00
10261;BME280;5175;42.606;23.388;2023-03-26T04:06:17;93320.59;;;8.18;100.00
10261;BME280;5175;42.606;23.388;2023-03-26T04:08:44;93326.69;;;8.24;100.00
10261;BME280;5175;42.606;23.388;2023-03-26T04:11:12;93325.84;;;8.33;100.00
10261;BME280;5175;42.606;23.388;2023-03-26T04:13:39;93326.69;;;8.24;100.00
10261;BME280;5175;42.606;23.388;2023-03-26T04:16:06;93332.72;;;8.39;100.00
10261;BME280;5175;42.606;23.388;2023-03-26T04:18:33;93336.47;;;8.33;100.00
10261;BME280;5175;42.606;23.388;2023-03-26T04:21:01;93340.63;;;8.49;100.00
10261;BME280;5175;42.606;23.388;2023-03-26T04:23:28;93353.44;;;8.37;100.00
10261;BME280;5175;42.606;23.388;2023-03-26T04:25:55;93366.47;;;8.39;100.00
10261;BME280;5175;42.606;23.388;2023-03-26T04:28:27;93353.09;;;8.00;100.00
10261;BME280;5175;42.606;23.388;2023-03-26T04:30:57;93370.78;;;8.30;100.00
10261;BME280;5175;42.606;23.388;2023-03-26T04:33:27;93374.44;;;8.44;100.00
10261;BME280;5175;42.606;23.388;2023-03-26T04:35:54;93376.28;;;8.43;100.00
10261;BME280;5175;42.606;23.388;2023-03-26T04:38:26;93378.94;;;8.43;100.00
10261;BME280;5175;42.606;23.388;2023-03-26T04:40:53;93388.72;;;8.53;100.00
10261;BME280;5175;42.606;23.388;2023-03-26T04:43:26;93372.53;;;8.49;100.00
10261;BME280;5175;42.606;23.388;2023-03-26T04:45:54;93381.31;;;8.50;100.00
10261;BME280;5175;42.606;23.388;2023-03-26T04:48:21;93394.59;;;8.50;100.00
10261;BME280;5175;42.606;23.388;2023-03-26T04:50:48;93397.50;;;8.53;100.00
10261;BME280;5175;42.606;23.388;2023-03-26T04:53:17;93400.63;;;8.60;100.00
10261;BME280;5175;42.606;23.388;2023-03-26T04:55:49;93399.88;;;8.60;100.00
10261;BME280;5175;42.606;23.388;2023-03-26T04:58:17;93337.63;;;8.12;100.00
10261;BME280;5175;42.606;23.388;2023-03-26T05:00:45;93400.22;;;8.43;100.00
10261;BME280;5175;42.606;23.388;2023-03-26T05:03:13;93401.84;;;8.39;100.00
10261;BME280;5175;42.606;23.388;2023-03-26T05:05:40;93403.38;;;8.45;100.00
10261;BME280;5175;42.606;23.388;2023-03-26T05:08:07;93398.63;;;8.42;100.00
10261;BME280;5175;42.606;23.388;2023-03-26T05:10:34;93410.31;;;8.41;100.00
10261;BME280;5175;42.606;23.388;2023-03-26T05:13:01;93410.34;;;8.36;100.00
10261;BME280;5175;42.606;23.388;2023-03-26T05:15:28;93392.06;;;8.14;100.00
10261;BME280;5175;42.606;23.388;2023-03-26T05:17:56;93419.91;;;8.32;100.00
10261;BME280;5175;42.606;23.388;2023-03-26T05:20:24;93424.69;;;8.40;100.00
10261;BME280;5175;42.606;23.388;2023-03-26T05:22:53;93422.88;;;8.26;100.00
10261;BME280;5175;42.606;23.388;2023-03-26T05:25:20;93428.69;;;8.33;100.00
10261;BME280;5175;42.606;23.388;2023-03-26T05:27:47;93435.63;;;8.34;100.00
10261;BME280;5175;42.606;23.388;2023-03-26T05:30:16;93421.00;;;8.36;100.00
10261;BME280;5175;42.606;23.388;2023-03-26T05:32:45;93433.44;;;8.41;100.00
10261;BME280;5175;42.606;23.388;2023-03-26T05:35:15;93436.59;;;8.48;100.00
10261;BME280;5175;42.606;23.388;2023-03-26T05:37:42;93443.97;;;8.61;100.00
10261;BME280;5175;42.606;23.388;2023-03-26T05:40:10;93437.84;;;8.70;100.00
10261;BME280;5175;42.606;23.388;2023-03-26T05:42:39;93432.47;;;8.75;100.00
10261;BME280;5175;42.606;23.388;2023-03-26T05:45:08;93437.78;;;8.80;100.00
10261;BME280;5175;42.606;23.388;2023-03-26T05:47:35;93442.00;;;8.81;100.00
10261;BME280;5175;42.606;23.388;2023-03-26T05:50:04;93437.72;;;8.86;100.00
10261;BME280;5175;42.606;23.388;2023-03-26T05:52:33;93440.28;;;9.01;100.00
10261;BME280;5175;42.606;23.388;2023-03-26T05:55:00;93443.13;;;9.09;100.00
10261;BME280;5175;42.606;23.388;2023-03-26T05:57:28;93451.81;;;9.25;100.00
10261;BME280;5175;42.606;23.388;2023-03-26T05:59:55;93453.34;;;9.36;100.00
10261;BME280;5175;42.606;23.388;2023-03-26T06:02:21;93442.84;;;9.50;100.00
10261;BME280;5175;42.606;23.388;2023-03-26T06:04:48;93445.00;;;9.42;100.00
10261;BME280;5175;42.606;23.388;2023-03-26T06:07:15;93442.88;;;9.44;100.00
10261;BME280;5175;42.606;23.388;2023-03-26T06:09:44;93434.59;;;9.46;100.00
10261;BME280;5175;42.606;23.388;2023-03-26T06:12:11;93440.59;;;9.62;100.00
10261;BME280;5175;42.606;23.388;2023-03-26T06:14:37;93438.63;;;9.72;100.00
10261;BME280;5175;42.606;23.388;2023-03-26T06:17:04;93441.19;;;9.82;98.38
10261;BME280;5175;42.606;23.388;2023-03-26T06:19:31;93439.69;;;10.00;97.12
10261;BME280;5175;42.606;23.388;2023-03-26T06:21:58;93433.16;;;9.87;95.55
10261;BME280;5175;42.606;23.388;2023-03-26T06:24:25;93435.56;;;9.84;93.88
10261;BME280;5175;42.606;23.388;2023-03-26T06:26:53;93439.44;;;9.73;88.66
10261;BME280;5175;42.606;23.388;2023-03-26T06:29:20;93443.25;;;9.90;89.70
10261;BME280;5175;42.606;23.388;2023-03-26T06:31:47;93411.16;;;10.00;87.62
10261;BME280;5175;42.606;23.388;2023-03-26T06:34:14;93432.78;;;10.23;86.76
10261;BME280;5175;42.606;23.388;2023-03-26T06:36:41;93434.94;;;10.44;86.87
10261;BME280;5175;42.606;23.388;2023-03-26T06:39:07;93433.09;;;10.63;85.37
10261;BME280;5175;42.606;23.388;2023-03-26T06:41:34;93432.81;;;10.65;83.42
10261;BME280;5175;42.606;23.388;2023-03-26T06:44:02;93433.47;;;10.76;80.93
10261;BME280;5175;42.606;23.388;2023-03-26T06:46:29;93444.34;;;10.79;80.87
10261;BME280;5175;42.606;23.388;2023-03-26T06:48:56;93438.94;;;10.65;80.95
10261;BME280;5175;42.606;23.388;2023-03-26T06:51:23;93438.28;;;10.74;80.32
10261;BME280;5175;42.606;23.388;2023-03-26T06:53:50;93450.50;;;10.80;78.42
10261;BME280;5175;42.606;23.388;2023-03-26T06:56:17;93451.13;;;10.72;78.26
10261;BME280;5175;42.606;23.388;2023-03-26T06:58:44;93456.34;;;10.58;77.30
10261;BME280;5175;42.606;23.388;2023-03-26T07:01:12;93459.00;;;10.63;78.28
10261;BME280;5175;42.606;23.388;2023-03-26T07:03:38;93463.13;;;10.93;78.39
10261;BME280;5175;42.606;23.388;2023-03-26T07:06:06;93472.06;;;11.02;78.38
10261;BME280;5175;42.606;23.388;2023-03-26T07:08:33;93467.16;;;11.27;76.31
10261;BME280;5175;42.606;23.388;2023-03-26T07:10:59;93469.97;;;11.36;75.61
10261;BME280;5175;42.606;23.388;2023-03-26T07:13:26;93472.88;;;11.40;72.30
10261;BME280;5175;42.606;23.388;2023-03-26T07:15:53;93478.81;;;11.69;72.76
10261;BME280;5175;42.606;23.388;2023-03-26T07:18:21;93473.03;;;11.80;70.47
10261;BME280;5175;42.606;23.388;2023-03-26T07:20:48;93474.41;;;11.59;69.81
10261;BME280;5175;42.606;23.388;2023-03-26T07:23:16;93468.34;;;11.72;70.30
10261;BME280;5175;42.606;23.388;2023-03-26T07:25:45;93463.06;;;12.00;69.38
10261;BME280;5175;42.606;23.388;2023-03-26T07:28:19;93468.50;;;11.94;69.45
10261;BME280;5175;42.606;23.388;2023-03-26T07:30:58;93467.16;;;12.11;68.16
10261;BME280;5175;42.606;23.388;2023-03-26T07:33:32;93464.09;;;12.31;67.25
10261;BME280;5175;42.606;23.388;2023-03-26T07:36:07;93451.63;;;12.26;65.72
10261;BME280;5175;42.606;23.388;2023-03-26T07:38:51;93452.41;;;12.40;66.07
10261;BME280;5175;42.606;23.388;2023-03-26T07:41:24;93454.59;;;12.38;64.97
10261;BME280;5175;42.606;23.388;2023-03-26T07:44:06;93456.97;;;12.53;63.82
10261;BME280;5175;42.606;23.388;2023-03-26T07:46:36;93465.69;;;12.73;63.36
10261;BME280;5175;42.606;23.388;2023-03-26T07:49:05;93454.56;;;12.93;62.97
10261;BME280;5175;42.606;23.388;2023-03-26T07:51:32;93449.66;;;13.22;62.04
10261;BME280;5175;42.606;23.388;2023-03-26T07:54:00;93452.84;;;12.97;61.16
10261;BME280;5175;42.606;23.388;2023-03-26T07:56:32;93465.78;;;12.81;60.17
10261;BME280;5175;42.606;23.388;2023-03-26T07:59:11;93456.53;;;12.87;60.59
10261;BME280;5175;42.606;23.388;2023-03-26T08:01:52;93463.41;;;12.80;60.29
10261;BME280;5175;42.606;23.388;2023-03-26T08:04:40;93462.84;;;13.05;58.08
10261;BME280;5175;42.606;23.388;2023-03-26T08:07:16;93460.03;;;12.74;58.91
10261;BME280;5175;42.606;23.388;2023-03-26T08:09:57;93462.00;;;12.96;56.36
10261;BME280;5175;42.606;23.388;2023-03-26T08:12:35;93447.88;;;13.17;56.21
10261;BME280;5175;42.606;23.388;2023-03-26T08:15:11;93456.19;;;13.52;55.90
10261;BME280;5175;42.606;23.388;2023-03-26T08:17:44;93454.59;;;13.29;54.29
10261;BME280;5175;42.606;23.388;2023-03-26T08:20:21;93460.50;;;13.39;55.02
10261;BME280;5175;42.606;23.388;2023-03-26T08:22:56;93465.16;;;13.69;55.05
10261;BME280;5175;42.606;23.388;2023-03-26T08:25:28;93472.81;;;13.85;54.42
10261;BME280;5175;42.606;23.388;2023-03-26T08:28:14;93473.19;;;13.69;52.99
10261;BME280;5175;42.606;23.388;2023-03-26T08:30:45;93472.72;;;13.67;52.89
10261;BME280;5175;42.606;23.388;2023-03-26T08:33:14;93464.78;;;14.07;52.31
10261;BME280;5175;42.606;23.388;2023-03-26T08:35:44;93465.09;;;13.83;50.84
10261;BME280;5175;42.606;23.388;2023-03-26T08:38:13;93467.00;;;14.13;49.46
10261;BME280;5175;42.606;23.388;2023-03-26T08:41:00;93470.47;;;14.36;49.04
10261;BME280;5175;42.606;23.388;2023-03-26T08:46:44;93470.03;;;14.20;48.50
10261;BME280;5175;42.606;23.388;2023-03-26T08:55:40;93465.06;;;14.67;46.74
10261;BME280;5175;42.606;23.388;2023-03-26T08:58:27;93467.06;;;15.00;47.18
10261;BME280;5175;42.606;23.388;2023-03-26T09:01:12;93459.50;;;15.11;46.72
10261;BME280;5175;42.606;23.388;2023-03-26T09:07:25;93458.25;;;15.17;44.84
10261;BME280;5175;42.606;23.388;2023-03-26T09:16:32;93463.28;;;15.01;45.73
10261;BME280;5175;42.606;23.388;2023-03-26T09:22:38;93458.59;;;15.33;42.69
10261;BME280;5175;42.606;23.388;2023-03-26T09:28:26;93448.31;;;15.52;40.73
10261;BME280;5175;42.606;23.388;2023-03-26T09:31:10;93439.59;;;15.38;39.14
10261;BME280;5175;42.606;23.388;2023-03-26T09:33:54;93450.84;;;15.65;38.87
10261;BME280;5175;42.606;23.388;2023-03-26T09:36:52;93449.88;;;15.44;40.32
10261;BME280;5175;42.606;23.388;2023-03-26T09:39:31;93446.38;;;15.27;40.71
10261;BME280;5175;42.606;23.388;2023-03-26T09:42:07;93448.28;;;15.26;41.29
10261;BME280;5175;42.606;23.388;2023-03-26T09:47:52;93444.19;;;15.46;42.14
10261;BME280;5175;42.606;23.388;2023-03-26T09:50:52;93442.16;;;15.69;42.05
10261;BME280;5175;42.606;23.388;2023-03-26T09:53:46;93443.25;;;15.76;39.53
10261;BME280;5175;42.606;23.388;2023-03-26T09:56:24;93440.56;;;15.76;41.10
10261;BME280;5175;42.606;23.388;2023-03-26T10:02:07;93432.63;;;15.97;40.36
10261;BME280;5175;42.606;23.388;2023-03-26T10:05:00;93438.00;;;15.97;40.41
10261;BME280;5175;42.606;23.388;2023-03-26T10:07:50;93435.56;;;16.21;40.16
10261;BME280;5175;42.606;23.388;2023-03-26T10:10:25;93442.88;;;15.95;40.36
10261;BME280;5175;42.606;23.388;2023-03-26T10:12:59;93427.69;;;16.07;40.39
10261;BME280;5175;42.606;23.388;2023-03-26T10:15:33;93429.56;;;16.15;39.39
10261;BME280;5175;42.606;23.388;2023-03-26T10:18:13;93414.13;;;15.87;39.19
10261;BME280;5175;42.606;23.388;2023-03-26T10:20:55;93428.00;;;16.14;39.51
10261;BME280;5175;42.606;23.388;2023-03-26T10:23:50;93401.88;;;16.06;40.57
10261;BME280;5175;42.606;23.388;2023-03-26T10:29:52;93393.13;;;16.18;39.08
10261;BME280;5175;42.606;23.388;2023-03-26T10:32:28;93388.19;;;15.31;39.02
10261;BME280;5175;42.606;23.388;2023-03-26T10:35:07;93396.59;;;15.38;39.34
10261;BME280;5175;42.606;23.388;2023-03-26T10:37:48;93383.78;;;15.35;39.21
10261;BME280;5175;42.606;23.388;2023-03-26T10:40:26;93354.72;;;15.45;37.36
10261;BME280;5175;42.606;23.388;2023-03-26T10:43:16;93374.97;;;16.06;38.13
10261;BME280;5175;42.606;23.388;2023-03-26T10:48:49;93380.81;;;16.08;36.52
10261;BME280;5175;42.606;23.388;2023-03-26T10:51:43;93374.53;;;16.34;35.98
10261;BME280;5175;42.606;23.388;2023-03-26T10:54:22;93376.63;;;16.28;34.89
10261;BME280;5175;42.606;23.388;2023-03-26T10:56:54;93378.47;;;16.45;35.27
10261;BME280;5175;42.606;23.388;2023-03-26T10:59:21;93367.97;;;16.52;35.15
10261;BME280;5175;42.606;23.388;2023-03-26T11:01:57;93357.91;;;16.69;35.24
10261;BME280;5175;42.606;23.388;2023-03-26T11:04:33;93366.09;;;16.52;36.06
10261;BME280;5175;42.606;23.388;2023-03-26T11:07:12;93360.50;;;16.86;35.64
10261;BME280;5175;42.606;23.388;2023-03-26T11:09:48;93357.19;;;16.60;34.15
10261;BME280;5175;42.606;23.388;2023-03-26T11:12:23;93368.28;;;16.50;34.00
10261;BME280;5175;42.606;23.388;2023-03-26T11:14:58;93355.78;;;16.54;33.81
10261;BME280;5175;42.606;23.388;2023-03-26T11:17:37;93359.75;;;16.77;33.63
10261;BME280;5175;42.606;23.388;2023-03-26T11:20:09;93353.19;;;16.28;33.46
10261;BME280;5175;42.606;23.388;2023-03-26T11:22:49;93346.09;;;15.78;34.23
10261;BME280;5175;42.606;23.388;2023-03-26T11:25:31;93350.47;;;16.37;33.73
10261;BME280;5175;42.606;23.388;2023-03-26T11:28:11;93347.00;;;16.66;32.70
10261;BME280;5175;42.606;23.388;2023-03-26T11:30:47;93339.88;;;15.94;31.21
10261;BME280;5175;42.606;23.388;2023-03-26T11:33:18;93327.34;;;16.36;33.80
10261;BME280;5175;42.606;23.388;2023-03-26T11:35:47;93339.19;;;16.73;33.35
10261;BME280;5175;42.606;23.388;2023-03-26T11:38:18;93347.34;;;16.85;30.16
10261;BME280;5175;42.606;23.388;2023-03-26T11:40:49;93338.88;;;16.95;31.01
10261;BME280;5175;42.606;23.388;2023-03-26T11:43:21;93330.13;;;17.39;31.67
10261;BME280;5175;42.606;23.388;2023-03-26T11:45:50;93337.72;;;17.79;30.88
10261;BME280;5175;42.606;23.388;2023-03-26T11:48:22;93319.53;;;17.34;31.04
10261;BME280;5175;42.606;23.388;2023-03-26T11:50:54;93318.00;;;17.13;31.69
10261;BME280;5175;42.606;23.388;2023-03-26T11:53:26;93313.28;;;17.42;30.50
10261;BME280;5175;42.606;23.388;2023-03-26T11:55:57;93307.16;;;17.87;31.45
10261;BME280;5175;42.606;23.388;2023-03-26T11:58:29;93299.50;;;18.13;30.31
10261;BME280;5175;42.606;23.388;2023-03-26T12:01:00;93291.69;;;17.42;30.42
10261;BME280;5175;42.606;23.388;2023-03-26T12:03:28;93273.38;;;17.69;34.76
10261;BME280;5175;42.606;23.388;2023-03-26T12:05:58;93266.09;;;17.81;34.10
10261;BME280;5175;42.606;23.388;2023-03-26T12:08:30;93258.13;;;18.33;33.34
10261;BME280;5175;42.606;23.388;2023-03-26T12:11:01;93262.44;;;17.53;29.66
10261;BME280;5175;42.606;23.388;2023-03-26T12:13:34;93273.22;;;17.53;31.17
10261;BME280;5175;42.606;23.388;2023-03-26T12:16:09;93275.63;;;17.67;30.69
10261;BME280;5175;42.606;23.388;2023-03-26T12:18:38;93266.31;;;18.00;30.93
10261;BME280;5175;42.606;23.388;2023-03-26T12:21:12;93261.47;;;18.18;29.85
10261;BME280;5175;42.606;23.388;2023-03-26T12:23:50;93248.22;;;18.13;30.73
10261;BME280;5175;42.606;23.388;2023-03-26T12:26:29;93247.97;;;18.42;31.13
10261;BME280;5175;42.606;23.388;2023-03-26T12:29:05;93239.88;;;18.30;30.44
10261;BME280;5175;42.606;23.388;2023-03-26T12:31:40;93241.78;;;18.66;32.15
10261;BME280;5175;42.606;23.388;2023-03-26T12:34:14;93234.47;;;18.66;29.87
10261;BME280;5175;42.606;23.388;2023-03-26T12:36:47;93231.44;;;18.96;29.48
10261;BME280;5175;42.606;23.388;2023-03-26T12:39:27;93236.81;;;19.08;29.81
10261;BME280;5175;42.606;23.388;2023-03-26T12:41:56;93220.91;;;19.06;30.24
10261;BME280;5175;42.606;23.388;2023-03-26T12:44:28;93214.22;;;19.16;28.99
10261;BME280;5175;42.606;23.388;2023-03-26T12:47:24;93216.44;;;19.26;30.86
10261;BME280;5175;42.606;23.388;2023-03-26T12:49:53;93220.56;;;18.80;27.94
10261;BME280;5175;42.606;23.388;2023-03-26T12:52:31;93218.63;;;18.17;29.22
10261;BME280;5175;42.606;23.388;2023-03-26T12:55:12;93213.59;;;18.79;29.46
10261;BME280;5175;42.606;23.388;2023-03-26T12:57:47;93212.97;;;18.58;28.42
10261;BME280;5175;42.606;23.388;2023-03-26T13:00:39;93203.75;;;18.47;27.31
10261;BME280;5175;42.606;23.388;2023-03-26T13:03:22;93203.41;;;18.88;26.98
10261;BME280;5175;42.606;23.388;2023-03-26T13:06:01;93195.28;;;19.16;28.62
10261;BME280;5175;42.606;23.388;2023-03-26T13:08:44;93199.50;;;19.29;27.93
10261;BME280;5175;42.606;23.388;2023-03-26T13:11:22;93193.44;;;19.04;27.27
10261;BME280;5175;42.606;23.388;2023-03-26T13:14:02;93212.13;;;19.37;24.91
10261;BME280;5175;42.606;23.388;2023-03-26T13:16:38;93198.28;;;19.70;27.35
10261;BME280;5175;42.606;23.388;2023-03-26T13:19:14;93200.56;;;19.83;24.93
10261;BME280;5175;42.606;23.388;2023-03-26T13:21:54;93196.78;;;20.19;26.99
10261;BME280;5175;42.606;23.388;2023-03-26T13:24:34;93189.97;;;20.41;26.35
10261;BME280;5175;42.606;23.388;2023-03-26T13:27:18;93201.59;;;20.41;26.97
10261;BME280;5175;42.606;23.388;2023-03-26T13:29:52;93194.69;;;19.50;25.17
10261;BME280;5175;42.606;23.388;2023-03-26T13:32:28;93206.94;;;19.75;23.84
10261;BME280;5175;42.606;23.388;2023-03-26T13:35:07;93194.19;;;19.91;24.58
10261;BME280;5175;42.606;23.388;2023-03-26T13:37:41;93204.31;;;19.94;23.17
10261;BME280;5175;42.606;23.388;2023-03-26T13:40:19;93202.75;;;19.93;22.04
10261;BME280;5175;42.606;23.388;2023-03-26T13:43:04;93204.91;;;20.35;23.92
10261;BME280;5175;42.606;23.388;2023-03-26T13:45:48;93200.03;;;20.09;24.07
10261;BME280;5175;42.606;23.388;2023-03-26T13:48:23;93205.59;;;19.26;23.99
10261;BME280;5175;42.606;23.388;2023-03-26T13:50:58;93202.41;;;19.79;25.59
10261;BME280;5175;42.606;23.388;2023-03-26T13:53:30;93200.66;;;20.03;22.60
10261;BME280;5175;42.606;23.388;2023-03-26T13:55:59;93201.34;;;20.15;22.65
10261;BME280;5175;42.606;23.388;2023-03-26T13:58:33;93202.03;;;20.63;22.62
10261;BME280;5175;42.606;23.388;2023-03-26T14:01:05;93188.69;;;20.54;24.08
10261;BME280;5175;42.606;23.388;2023-03-26T14:03:41;93197.97;;;20.53;22.68
10261;BME280;5175;42.606;23.388;2023-03-26T14:06:29;93186.84;;;19.45;23.80